sensor_id;sensor_type;location;lat;lon;timestamp;pressure;altitude;pressure_sealevel;temperature;humidity
77975;BME280;67164;51.202;0.278;2024-01-07T00:01:54;101847.23;;;22.14;36.39
77975;BME280;67164;51.202;0.278;2024-01-07T00:04:19;101846.65;;;22.08;36.25
77975;BME280;67164;51.202;0.278;2024-01-07T00:06:46;101846.33;;;22.24;36.31
77975;BME280;67164;51.202;0.278;2024-01-07T00:09:11;101849.04;;;22.42;36.02
77975;BME280;67164;51.202;0.278;2024-01-07T00:11:37;101853.83;;;21.99;36.08
77975;BME280;67164;51.202;0.278;2024-01-07T00:14:03;101856.10;;;21.92;36.14
77975;BME280;67164;51.202;0.278;2024-01-07T00:16:28;101859.31;;;22.10;36.05
77975;BME280;67164;51.202;0.278;2024-01-07T00:18:54;101858.92;;;21.77;36.04
77975;BME280;67164;51.202;0.278;2024-01-07T00:21:20;101862.75;;;21.83;36.08
77975;BME280;67164;51.202;0.278;2024-01-07T00:23:46;101862.13;;;21.84;35.93
77975;BME280;67164;51.202;0.278;2024-01-07T00:26:12;101869.84;;;21.65;36.19
77975;BME280;67164;51.202;0.278;2024-01-07T00:28:37;101866.49;;;21.76;35.93
77975;BME280;67164;51.202;0.278;2024-01-07T00:31:03;101871.76;;;21.73;35.93
77975;BME280;67164;51.202;0.278;2024-01-07T00:33:30;101873.11;;;21.61;36.14
77975;BME280;67164;51.202;0.278;2024-01-07T00:35:56;101874.92;;;22.17;35.98
77975;BME280;67164;51.202;0.278;2024-01-07T00:38:20;101876.83;;;21.51;36.00
77975;BME280;67164;51.202;0.278;2024-01-07T00:40:46;101879.24;;;21.78;36.05
77975;BME280;67164;51.202;0.278;2024-01-07T00:43:12;101878.53;;;21.56;35.87
77975;BME280;67164;51.202;0.278;2024-01-07T00:45:38;101882.82;;;21.51;35.85
77975;BME280;67164;51.202;0.278;2024-01-07T00:48:04;101880.13;;;21.84;36.04
77975;BME280;67164;51.202;0.278;2024-01-07T00:50:29;101879.06;;;21.45;35.77
77975;BME280;67164;51.202;0.278;2024-01-07T00:52:55;101879.73;;;21.52;35.72
77975;BME280;67164;51.202;0.278;2024-01-07T00:55:21;101879.16;;;21.84;35.77
77975;BME280;67164;51.202;0.278;2024-01-07T00:57:47;101883.65;;;21.32;35.67
77975;BME280;67164;51.202;0.278;2024-01-07T01:00:13;101884.30;;;21.50;35.76
77975;BME280;67164;51.202;0.278;2024-01-07T01:02:38;101882.82;;;21.49;35.58
77975;BME280;67164;51.202;0.278;2024-01-07T01:05:05;101886.45;;;21.39;35.64
77975;BME280;67164;51.202;0.278;2024-01-07T01:07:30;101890.46;;;21.59;35.25
77975;BME280;67164;51.202;0.278;2024-01-07T01:09:56;101887.83;;;21.43;35.54
77975;BME280;67164;51.202;0.278;2024-01-07T01:12:22;101889.28;;;21.33;35.66
77975;BME280;67164;51.202;0.278;2024-01-07T01:14:47;101889.45;;;21.26;35.98
77975;BME280;67164;51.202;0.278;2024-01-07T01:17:13;101890.61;;;21.35;35.85
77975;BME280;67164;51.202;0.278;2024-01-07T01:19:39;101887.26;;;21.29;35.82
77975;BME280;67164;51.202;0.278;2024-01-07T01:22:05;101890.00;;;21.62;35.75
77975;BME280;67164;51.202;0.278;2024-01-07T01:24:31;101891.09;;;21.38;35.93
77975;BME280;67164;51.202;0.278;2024-01-07T01:26:56;101897.08;;;21.40;36.02
77975;BME280;67164;51.202;0.278;2024-01-07T01:29:22;101893.55;;;21.20;35.96
77975;BME280;67164;51.202;0.278;2024-01-07T01:31:48;101892.48;;;21.14;36.17
77975;BME280;67164;51.202;0.278;2024-01-07T01:34:14;101893.10;;;21.06;36.23
77975;BME280;67164;51.202;0.278;2024-01-07T01:36:40;101892.04;;;21.21;36.26
77975;BME280;67164;51.202;0.278;2024-01-07T01:39:05;101898.27;;;21.21;36.12
77975;BME280;67164;51.202;0.278;2024-01-07T01:41:32;101896.78;;;21.23;36.20
77975;BME280;67164;51.202;0.278;2024-01-07T01:43:58;101898.91;;;20.98;36.14
77975;BME280;67164;51.202;0.278;2024-01-07T01:46:23;101903.78;;;21.12;36.23
77975;BME280;67164;51.202;0.278;2024-01-07T01:48:49;101908.15;;;20.76;36.28
77975;BME280;67164;51.202;0.278;2024-01-07T01:51:14;101910.57;;;20.59;36.37
77975;BME280;67164;51.202;0.278;2024-01-07T01:53:40;101912.02;;;20.94;36.33
77975;BME280;67164;51.202;0.278;2024-01-07T01:56:06;101911.50;;;21.08;36.27
77975;BME280;67164;51.202;0.278;2024-01-07T01:58:32;101914.83;;;20.91;36.28
77975;BME280;67164;51.202;0.278;2024-01-07T02:00:58;101918.93;;;21.13;36.31
77975;BME280;67164;51.202;0.278;2024-01-07T02:03:23;101920.49;;;20.93;36.36
77975;BME280;67164;51.202;0.278;2024-01-07T02:05:49;101916.01;;;20.98;36.43
77975;BME280;67164;51.202;0.278;2024-01-07T02:08:16;101917.20;;;21.18;36.36
77975;BME280;67164;51.202;0.278;2024-01-07T02:10:41;101915.76;;;20.86;36.26
77975;BME280;67164;51.202;0.278;2024-01-07T02:13:06;101919.27;;;20.91;36.62
77975;BME280;67164;51.202;0.278;2024-01-07T02:15:32;101921.80;;;20.93;36.59
77975;BME280;67164;51.202;0.278;2024-01-07T02:17:58;101921.35;;;20.58;36.52
77975;BME280;67164;51.202;0.278;2024-01-07T02:20:24;101925.25;;;20.73;36.13
77975;BME280;67164;51.202;0.278;2024-01-07T02:22:49;101923.88;;;20.69;36.15
77975;BME280;67164;51.202;0.278;2024-01-07T02:25:15;101924.08;;;20.45;36.33
77975;BME280;67164;51.202;0.278;2024-01-07T02:27:41;101921.99;;;20.74;36.25
77975;BME280;67164;51.202;0.278;2024-01-07T02:30:08;101924.78;;;20.62;36.17
77975;BME280;67164;51.202;0.278;2024-01-07T02:32:33;101927.60;;;20.68;36.35
77975;BME280;67164;51.202;0.278;2024-01-07T02:34:59;101925.72;;;20.75;36.31
77975;BME280;67164;51.202;0.278;2024-01-07T02:37:24;101930.26;;;21.19;35.85
77975;BME280;67164;51.202;0.278;2024-01-07T02:39:50;101926.03;;;20.67;36.31
77975;BME280;67164;51.202;0.278;2024-01-07T02:42:16;101933.49;;;21.08;35.82
77975;BME280;67164;51.202;0.278;2024-01-07T02:44:41;101932.15;;;20.62;36.10
77975;BME280;67164;51.202;0.278;2024-01-07T02:47:07;101935.42;;;20.86;35.84
77975;BME280;67164;51.202;0.278;2024-01-07T02:49:33;101927.73;;;21.05;35.88
77975;BME280;67164;51.202;0.278;2024-01-07T02:51:59;101928.39;;;20.62;36.08
77975;BME280;67164;51.202;0.278;2024-01-07T02:54:25;101929.30;;;20.89;35.75
77975;BME280;67164;51.202;0.278;2024-01-07T02:56:50;101932.09;;;20.90;35.73
77975;BME280;67164;51.202;0.278;2024-01-07T02:59:16;101931.37;;;20.90;35.68
77975;BME280;67164;51.202;0.278;2024-01-07T03:01:42;101927.80;;;20.69;35.64
77975;BME280;67164;51.202;0.278;2024-01-07T03:04:09;101928.68;;;20.80;35.73
77975;BME280;67164;51.202;0.278;2024-01-07T03:06:33;101931.88;;;20.84;35.74
77975;BME280;67164;51.202;0.278;2024-01-07T03:08:59;101934.68;;;21.28;35.59
77975;BME280;67164;51.202;0.278;2024-01-07T03:11:25;101940.13;;;21.04;35.56
77975;BME280;67164;51.202;0.278;2024-01-07T03:13:51;101942.08;;;21.34;35.38
77975;BME280;67164;51.202;0.278;2024-01-07T03:16:20;101946.98;;;21.22;35.24
77975;BME280;67164;51.202;0.278;2024-01-07T03:18:42;101943.54;;;20.85;35.59
77975;BME280;67164;51.202;0.278;2024-01-07T03:21:16;101945.13;;;20.97;35.49
77975;BME280;67164;51.202;0.278;2024-01-07T03:23:36;101945.19;;;21.00;35.43
77975;BME280;67164;51.202;0.278;2024-01-07T03:26:00;101945.08;;;20.77;35.66
77975;BME280;67164;51.202;0.278;2024-01-07T03:28:25;101943.91;;;20.66;35.72
77975;BME280;67164;51.202;0.278;2024-01-07T03:30:51;101945.86;;;20.83;35.57
77975;BME280;67164;51.202;0.278;2024-01-07T03:33:17;101947.22;;;20.64;35.76
77975;BME280;67164;51.202;0.278;2024-01-07T03:35:43;101944.59;;;20.85;35.59
77975;BME280;67164;51.202;0.278;2024-01-07T03:38:08;101951.43;;;20.55;35.70
77975;BME280;67164;51.202;0.278;2024-01-07T03:40:34;101953.18;;;20.93;35.50
77975;BME280;67164;51.202;0.278;2024-01-07T03:43:00;101952.79;;;20.93;35.53
77975;BME280;67164;51.202;0.278;2024-01-07T03:45:26;101951.12;;;20.48;35.75
77975;BME280;67164;51.202;0.278;2024-01-07T03:47:52;101953.85;;;20.63;35.62
77975;BME280;67164;51.202;0.278;2024-01-07T03:50:17;101955.47;;;20.99;35.43
77975;BME280;67164;51.202;0.278;2024-01-07T03:52:43;101959.93;;;20.70;35.42
77975;BME280;67164;51.202;0.278;2024-01-07T03:55:09;101958.21;;;21.02;35.16
77975;BME280;67164;51.202;0.278;2024-01-07T03:57:35;101960.67;;;21.10;35.26
77975;BME280;67164;51.202;0.278;2024-01-07T04:00:01;101960.96;;;21.24;34.98
77975;BME280;67164;51.202;0.278;2024-01-07T04:02:26;101958.62;;;21.32;34.99
77975;BME280;67164;51.202;0.278;2024-01-07T04:04:52;101962.96;;;21.02;35.02
77975;BME280;67164;51.202;0.278;2024-01-07T04:07:18;101962.02;;;21.04;34.88
77975;BME280;67164;51.202;0.278;2024-01-07T04:09:44;101958.25;;;20.96;34.96
77975;BME280;67164;51.202;0.278;2024-01-07T04:12:10;101955.45;;;20.75;35.15
77975;BME280;67164;51.202;0.278;2024-01-07T04:14:35;101957.48;;;21.39;34.74
77975;BME280;67164;51.202;0.278;2024-01-07T04:17:01;101955.54;;;21.30;34.55
77975;BME280;67164;51.202;0.278;2024-01-07T04:19:27;101954.38;;;21.13;35.01
77975;BME280;67164;51.202;0.278;2024-01-07T04:21:53;101954.21;;;21.49;34.72
77975;BME280;67164;51.202;0.278;2024-01-07T04:24:19;101954.98;;;21.65;34.61
77975;BME280;67164;51.202;0.278;2024-01-07T04:26:44;101954.36;;;21.34;34.65
77975;BME280;67164;51.202;0.278;2024-01-07T04:29:10;101957.97;;;21.42;34.61
77975;BME280;67164;51.202;0.278;2024-01-07T04:31:36;101959.66;;;21.64;34.56
77975;BME280;67164;51.202;0.278;2024-01-07T04:34:02;101962.31;;;21.65;34.66
77975;BME280;67164;51.202;0.278;2024-01-07T04:36:28;101966.43;;;21.68;34.53
77975;BME280;67164;51.202;0.278;2024-01-07T04:38:53;101969.12;;;21.69;34.61
77975;BME280;67164;51.202;0.278;2024-01-07T04:41:19;101973.45;;;21.60;34.74
77975;BME280;67164;51.202;0.278;2024-01-07T04:43:45;101974.88;;;21.68;34.41
77975;BME280;67164;51.202;0.278;2024-01-07T04:46:11;101978.09;;;21.42;34.36
77975;BME280;67164;51.202;0.278;2024-01-07T04:48:36;101984.48;;;21.60;34.49
77975;BME280;67164;51.202;0.278;2024-01-07T04:51:03;101982.64;;;21.79;34.51
77975;BME280;67164;51.202;0.278;2024-01-07T04:53:28;101980.46;;;21.45;34.51
77975;BME280;67164;51.202;0.278;2024-01-07T04:55:54;101978.67;;;21.54;34.64
77975;BME280;67164;51.202;0.278;2024-01-07T04:58:20;101976.33;;;21.40;34.85
77975;BME280;67164;51.202;0.278;2024-01-07T05:00:46;101977.04;;;21.34;34.93
77975;BME280;67164;51.202;0.278;2024-01-07T05:03:11;101980.91;;;21.31;34.89
77975;BME280;67164;51.202;0.278;2024-01-07T05:05:37;101981.81;;;21.37;34.50
77975;BME280;67164;51.202;0.278;2024-01-07T05:08:03;101987.10;;;21.32;34.66
77975;BME280;67164;51.202;0.278;2024-01-07T05:10:29;101984.24;;;21.17;34.42
77975;BME280;67164;51.202;0.278;2024-01-07T05:12:55;101983.88;;;21.40;34.40
77975;BME280;67164;51.202;0.278;2024-01-07T05:15:20;101984.76;;;21.35;34.37
77975;BME280;67164;51.202;0.278;2024-01-07T05:17:46;101985.52;;;21.12;34.16
77975;BME280;67164;51.202;0.278;2024-01-07T05:20:15;101984.76;;;21.21;34.30
77975;BME280;67164;51.202;0.278;2024-01-07T05:22:38;101984.56;;;21.04;34.26
77975;BME280;67164;51.202;0.278;2024-01-07T05:25:04;101985.57;;;21.11;34.35
77975;BME280;67164;51.202;0.278;2024-01-07T05:27:29;101987.89;;;21.09;34.34
77975;BME280;67164;51.202;0.278;2024-01-07T05:29:55;101992.29;;;20.97;34.48
77975;BME280;67164;51.202;0.278;2024-01-07T05:32:21;102002.26;;;20.78;34.36
77975;BME280;67164;51.202;0.278;2024-01-07T05:34:47;102004.06;;;20.83;34.27
77975;BME280;67164;51.202;0.278;2024-01-07T05:37:13;102011.30;;;20.98;34.31
77975;BME280;67164;51.202;0.278;2024-01-07T05:39:38;102012.15;;;21.00;33.98
77975;BME280;67164;51.202;0.278;2024-01-07T05:42:04;102019.76;;;20.86;34.29
77975;BME280;67164;51.202;0.278;2024-01-07T05:44:30;102020.39;;;20.96;34.22
77975;BME280;67164;51.202;0.278;2024-01-07T05:46:56;102018.24;;;20.95;34.25
77975;BME280;67164;51.202;0.278;2024-01-07T05:49:22;102023.88;;;20.80;34.35
77975;BME280;67164;51.202;0.278;2024-01-07T05:51:47;102030.29;;;20.96;34.26
77975;BME280;67164;51.202;0.278;2024-01-07T05:54:13;102041.49;;;20.82;34.08
77975;BME280;67164;51.202;0.278;2024-01-07T05:56:39;102043.29;;;20.76;34.21
77975;BME280;67164;51.202;0.278;2024-01-07T05:59:05;102047.12;;;20.67;34.66
77975;BME280;67164;51.202;0.278;2024-01-07T06:01:31;102048.75;;;20.64;34.74
77975;BME280;67164;51.202;0.278;2024-01-07T06:03:56;102047.22;;;20.71;34.76
77975;BME280;67164;51.202;0.278;2024-01-07T06:06:22;102048.65;;;20.62;35.02
77975;BME280;67164;51.202;0.278;2024-01-07T06:08:48;102051.90;;;20.71;34.89
77975;BME280;67164;51.202;0.278;2024-01-07T06:11:14;102054.40;;;20.92;35.17
77975;BME280;67164;51.202;0.278;2024-01-07T06:13:40;102055.98;;;20.69;35.32
77975;BME280;67164;51.202;0.278;2024-01-07T06:16:06;102056.79;;;20.70;35.01
77975;BME280;67164;51.202;0.278;2024-01-07T06:18:31;102060.67;;;20.55;35.33
77975;BME280;67164;51.202;0.278;2024-01-07T06:20:57;102067.08;;;20.59;35.42
77975;BME280;67164;51.202;0.278;2024-01-07T06:23:23;102067.75;;;20.63;35.46
77975;BME280;67164;51.202;0.278;2024-01-07T06:25:49;102071.81;;;20.38;35.24
77975;BME280;67164;51.202;0.278;2024-01-07T06:28:14;102070.54;;;20.83;35.39
77975;BME280;67164;51.202;0.278;2024-01-07T06:30:40;102073.66;;;20.84;35.26
77975;BME280;67164;51.202;0.278;2024-01-07T06:33:06;102076.32;;;20.84;35.19
77975;BME280;67164;51.202;0.278;2024-01-07T06:35:32;102078.25;;;20.77;35.47
77975;BME280;67164;51.202;0.278;2024-01-07T06:37:58;102085.03;;;20.47;35.30
77975;BME280;67164;51.202;0.278;2024-01-07T06:40:24;102085.83;;;20.74;35.49
77975;BME280;67164;51.202;0.278;2024-01-07T06:42:49;102089.54;;;20.35;35.40
77975;BME280;67164;51.202;0.278;2024-01-07T06:45:16;102090.01;;;20.34;35.38
77975;BME280;67164;51.202;0.278;2024-01-07T06:47:41;102091.69;;;20.54;35.37
77975;BME280;67164;51.202;0.278;2024-01-07T06:50:08;102090.04;;;20.75;35.62
77975;BME280;67164;51.202;0.278;2024-01-07T06:52:33;102090.96;;;20.32;34.97
77975;BME280;67164;51.202;0.278;2024-01-07T06:54:59;102099.83;;;20.38;35.32
77975;BME280;67164;51.202;0.278;2024-01-07T06:57:24;102102.01;;;20.24;35.89
77975;BME280;67164;51.202;0.278;2024-01-07T06:59:50;102099.45;;;20.58;35.87
77975;BME280;67164;51.202;0.278;2024-01-07T07:02:16;102104.62;;;20.37;35.74
77975;BME280;67164;51.202;0.278;2024-01-07T07:04:42;102109.70;;;20.26;35.62
77975;BME280;67164;51.202;0.278;2024-01-07T07:07:08;102114.04;;;20.02;35.41
77975;BME280;67164;51.202;0.278;2024-01-07T07:09:33;102114.70;;;19.94;35.67
77975;BME280;67164;51.202;0.278;2024-01-07T07:11:59;102117.70;;;19.98;35.31
77975;BME280;67164;51.202;0.278;2024-01-07T07:14:25;102119.89;;;19.65;35.76
77975;BME280;67164;51.202;0.278;2024-01-07T07:16:51;102122.12;;;19.70;35.81
77975;BME280;67164;51.202;0.278;2024-01-07T07:19:17;102125.85;;;19.62;35.99
77975;BME280;67164;51.202;0.278;2024-01-07T07:21:43;102129.65;;;20.12;35.81
77975;BME280;67164;51.202;0.278;2024-01-07T07:24:08;102130.87;;;20.09;35.36
77975;BME280;67164;51.202;0.278;2024-01-07T07:26:34;102128.89;;;20.06;35.46
77975;BME280;67164;51.202;0.278;2024-01-07T07:29:00;102129.21;;;20.29;35.18
77975;BME280;67164;51.202;0.278;2024-01-07T07:31:26;102131.98;;;19.86;35.35
77975;BME280;67164;51.202;0.278;2024-01-07T07:33:51;102129.96;;;19.95;35.51
77975;BME280;67164;51.202;0.278;2024-01-07T07:36:17;102138.67;;;19.99;35.47
77975;BME280;67164;51.202;0.278;2024-01-07T07:38:43;102139.76;;;19.87;35.48
77975;BME280;67164;51.202;0.278;2024-01-07T07:41:09;102146.73;;;20.16;35.24
77975;BME280;67164;51.202;0.278;2024-01-07T07:43:35;102146.60;;;19.85;35.26
77975;BME280;67164;51.202;0.278;2024-01-07T07:46:00;102150.03;;;19.77;36.39
77975;BME280;67164;51.202;0.278;2024-01-07T07:48:26;102152.97;;;20.32;36.10
77975;BME280;67164;51.202;0.278;2024-01-07T07:50:52;102154.40;;;20.06;36.01
77975;BME280;67164;51.202;0.278;2024-01-07T07:53:17;102155.00;;;20.16;35.55
77975;BME280;67164;51.202;0.278;2024-01-07T07:55:43;102153.97;;;20.44;35.52
77975;BME280;67164;51.202;0.278;2024-01-07T07:58:09;102155.22;;;20.29;35.61
77975;BME280;67164;51.202;0.278;2024-01-07T08:00:35;102162.45;;;20.28;35.38
77975;BME280;67164;51.202;0.278;2024-01-07T08:03:00;102166.28;;;20.55;35.27
77975;BME280;67164;51.202;0.278;2024-01-07T08:05:26;102167.36;;;20.50;35.32
77975;BME280;67164;51.202;0.278;2024-01-07T08:07:52;102167.03;;;20.42;35.38
77975;BME280;67164;51.202;0.278;2024-01-07T08:10:17;102173.52;;;20.13;35.34
77975;BME280;67164;51.202;0.278;2024-01-07T08:12:43;102174.42;;;20.49;35.27
77975;BME280;67164;51.202;0.278;2024-01-07T08:15:09;102176.28;;;20.55;35.28
77975;BME280;67164;51.202;0.278;2024-01-07T08:17:34;102178.48;;;20.67;35.22
77975;BME280;67164;51.202;0.278;2024-01-07T08:20:00;102187.52;;;20.87;35.29
77975;BME280;67164;51.202;0.278;2024-01-07T08:22:36;102185.86;;;20.74;35.29
77975;BME280;67164;51.202;0.278;2024-01-07T08:24:52;102187.16;;;20.67;35.20
77975;BME280;67164;51.202;0.278;2024-01-07T08:27:30;102192.73;;;20.21;35.25
77975;BME280;67164;51.202;0.278;2024-01-07T08:29:44;102192.45;;;20.18;35.27
77975;BME280;67164;51.202;0.278;2024-01-07T08:32:09;102199.74;;;20.31;35.08
77975;BME280;67164;51.202;0.278;2024-01-07T08:34:37;102206.06;;;20.58;34.98
77975;BME280;67164;51.202;0.278;2024-01-07T08:37:01;102210.76;;;20.47;35.12
77975;BME280;67164;51.202;0.278;2024-01-07T08:39:27;102206.49;;;20.32;35.06
77975;BME280;67164;51.202;0.278;2024-01-07T08:41:53;102211.44;;;20.31;35.02
77975;BME280;67164;51.202;0.278;2024-01-07T08:44:18;102211.06;;;20.67;34.88
77975;BME280;67164;51.202;0.278;2024-01-07T08:46:49;102210.71;;;20.42;34.80
77975;BME280;67164;51.202;0.278;2024-01-07T08:49:10;102215.18;;;20.77;34.79
77975;BME280;67164;51.202;0.278;2024-01-07T08:51:36;102214.34;;;20.32;34.94
77975;BME280;67164;51.202;0.278;2024-01-07T08:54:02;102214.22;;;20.34;34.97
77975;BME280;67164;51.202;0.278;2024-01-07T08:56:27;102222.16;;;20.62;34.74
77975;BME280;67164;51.202;0.278;2024-01-07T08:58:53;102223.05;;;20.94;34.53
77975;BME280;67164;51.202;0.278;2024-01-07T09:01:19;102230.22;;;20.96;34.26
77975;BME280;67164;51.202;0.278;2024-01-07T09:03:45;102232.37;;;20.92;34.37
77975;BME280;67164;51.202;0.278;2024-01-07T09:06:10;102236.16;;;20.59;34.42
77975;BME280;67164;51.202;0.278;2024-01-07T09:08:36;102235.35;;;20.57;34.54
77975;BME280;67164;51.202;0.278;2024-01-07T09:11:04;102235.43;;;20.37;34.56
77975;BME280;67164;51.202;0.278;2024-01-07T09:13:28;102238.62;;;20.91;34.36
77975;BME280;67164;51.202;0.278;2024-01-07T09:15:53;102244.09;;;20.75;34.32
77975;BME280;67164;51.202;0.278;2024-01-07T09:18:19;102240.76;;;21.34;34.22
77975;BME280;67164;51.202;0.278;2024-01-07T09:20:45;102240.27;;;21.38;34.12
77975;BME280;67164;51.202;0.278;2024-01-07T09:23:11;102247.54;;;21.30;34.22
77975;BME280;67164;51.202;0.278;2024-01-07T09:25:37;102251.39;;;21.08;34.41
77975;BME280;67164;51.202;0.278;2024-01-07T09:28:03;102253.84;;;20.63;34.65
77975;BME280;67164;51.202;0.278;2024-01-07T09:30:28;102253.50;;;20.34;34.98
77975;BME280;67164;51.202;0.278;2024-01-07T09:32:54;102264.61;;;21.08;34.65
77975;BME280;67164;51.202;0.278;2024-01-07T09:35:25;102269.99;;;21.04;34.39
77975;BME280;67164;51.202;0.278;2024-01-07T09:37:46;102269.68;;;21.07;34.45
77975;BME280;67164;51.202;0.278;2024-01-07T09:40:12;102272.13;;;21.26;34.37
77975;BME280;67164;51.202;0.278;2024-01-07T09:42:37;102273.58;;;21.26;34.38
77975;BME280;67164;51.202;0.278;2024-01-07T09:45:04;102279.63;;;21.48;34.50
77975;BME280;67164;51.202;0.278;2024-01-07T09:47:29;102273.44;;;21.53;34.28
77975;BME280;67164;51.202;0.278;2024-01-07T09:49:55;102275.01;;;21.51;34.31
77975;BME280;67164;51.202;0.278;2024-01-07T09:52:21;102276.25;;;21.25;34.33
77975;BME280;67164;51.202;0.278;2024-01-07T09:54:51;102283.25;;;21.31;34.48
77975;BME280;67164;51.202;0.278;2024-01-07T09:57:13;102280.75;;;21.07;34.43
77975;BME280;67164;51.202;0.278;2024-01-07T09:59:38;102281.23;;;21.22;34.48
77975;BME280;67164;51.202;0.278;2024-01-07T10:02:04;102280.18;;;21.16;34.40
77975;BME280;67164;51.202;0.278;2024-01-07T10:04:30;102277.97;;;21.18;34.37
77975;BME280;67164;51.202;0.278;2024-01-07T10:06:56;102274.57;;;21.14;34.45
77975;BME280;67164;51.202;0.278;2024-01-07T10:09:22;102272.68;;;20.96;34.40
77975;BME280;67164;51.202;0.278;2024-01-07T10:11:47;102271.65;;;21.10;34.19
77975;BME280;67164;51.202;0.278;2024-01-07T10:14:13;102274.95;;;20.93;34.04
77975;BME280;67164;51.202;0.278;2024-01-07T10:16:39;102281.08;;;21.06;34.12
77975;BME280;67164;51.202;0.278;2024-01-07T10:19:05;102289.28;;;20.79;34.09
77975;BME280;67164;51.202;0.278;2024-01-07T10:21:30;102288.96;;;20.48;34.16
77975;BME280;67164;51.202;0.278;2024-01-07T10:24:07;102288.39;;;21.00;34.04
77975;BME280;67164;51.202;0.278;2024-01-07T10:26:22;102294.37;;;20.94;34.04
77975;BME280;67164;51.202;0.278;2024-01-07T10:28:48;102300.96;;;20.81;34.60
77975;BME280;67164;51.202;0.278;2024-01-07T10:31:14;102296.04;;;21.13;34.27
77975;BME280;67164;51.202;0.278;2024-01-07T10:33:40;102302.49;;;20.75;34.45
77975;BME280;67164;51.202;0.278;2024-01-07T10:36:06;102301.94;;;20.81;34.86
77975;BME280;67164;51.202;0.278;2024-01-07T10:38:32;102311.51;;;21.11;34.63
77975;BME280;67164;51.202;0.278;2024-01-07T10:40:59;102310.92;;;21.04;34.52
77975;BME280;67164;51.202;0.278;2024-01-07T10:43:23;102306.69;;;20.71;34.72
77975;BME280;67164;51.202;0.278;2024-01-07T10:45:49;102306.48;;;20.76;34.66
77975;BME280;67164;51.202;0.278;2024-01-07T10:48:17;102308.14;;;20.47;34.71
77975;BME280;67164;51.202;0.278;2024-01-07T10:50:41;102309.96;;;20.87;34.54
77975;BME280;67164;51.202;0.278;2024-01-07T10:53:17;102303.99;;;20.80;34.63
77975;BME280;67164;51.202;0.278;2024-01-07T10:55:34;102304.25;;;20.67;34.65
77975;BME280;67164;51.202;0.278;2024-01-07T10:57:58;102303.49;;;20.75;34.47
77975;BME280;67164;51.202;0.278;2024-01-07T11:00:23;102303.66;;;20.69;34.52
77975;BME280;67164;51.202;0.278;2024-01-07T11:02:59;102313.04;;;21.07;34.49
77975;BME280;67164;51.202;0.278;2024-01-07T11:05:20;102306.92;;;20.65;34.50
77975;BME280;67164;51.202;0.278;2024-01-07T11:07:43;102306.10;;;20.57;34.60
77975;BME280;67164;51.202;0.278;2024-01-07T11:10:11;102306.80;;;20.65;34.54
77975;BME280;67164;51.202;0.278;2024-01-07T11:12:33;102303.90;;;20.72;34.54
77975;BME280;67164;51.202;0.278;2024-01-07T11:14:59;102308.08;;;20.48;34.70
77975;BME280;67164;51.202;0.278;2024-01-07T11:17:40;102307.36;;;20.49;34.72
77975;BME280;67164;51.202;0.278;2024-01-07T11:19:50;102308.58;;;20.58;34.49
77975;BME280;67164;51.202;0.278;2024-01-07T11:22:23;102313.15;;;20.70;34.66
77975;BME280;67164;51.202;0.278;2024-01-07T11:24:41;102312.86;;;20.48;34.67
77975;BME280;67164;51.202;0.278;2024-01-07T11:27:08;102310.67;;;20.59;34.65
77975;BME280;67164;51.202;0.278;2024-01-07T11:29:33;102307.52;;;20.59;34.77
77975;BME280;67164;51.202;0.278;2024-01-07T11:31:59;102307.23;;;19.91;35.38
77975;BME280;67164;51.202;0.278;2024-01-07T11:36:51;102302.85;;;19.93;35.68
77975;BME280;67164;51.202;0.278;2024-01-07T11:39:16;102303.24;;;20.02;35.63
77975;BME280;67164;51.202;0.278;2024-01-07T11:41:42;102299.10;;;20.05;35.47
77975;BME280;67164;51.202;0.278;2024-01-07T11:44:08;102301.17;;;20.22;35.64
77975;BME280;67164;51.202;0.278;2024-01-07T11:46:34;102300.78;;;19.82;36.13
77975;BME280;67164;51.202;0.278;2024-01-07T11:49:00;102300.27;;;20.06;37.17
77975;BME280;67164;51.202;0.278;2024-01-07T11:51:25;102303.32;;;19.90;37.58
77975;BME280;67164;51.202;0.278;2024-01-07T11:53:50;102301.66;;;19.79;39.04
77975;BME280;67164;51.202;0.278;2024-01-07T11:56:15;102310.69;;;19.58;41.30
77975;BME280;67164;51.202;0.278;2024-01-07T11:58:40;102312.56;;;19.68;40.93
77975;BME280;67164;51.202;0.278;2024-01-07T12:01:05;102310.39;;;19.94;39.48
77975;BME280;67164;51.202;0.278;2024-01-07T12:03:30;102307.72;;;20.16;38.43
77975;BME280;67164;51.202;0.278;2024-01-07T12:05:56;102310.43;;;20.13;38.20
77975;BME280;67164;51.202;0.278;2024-01-07T12:08:22;102308.31;;;20.52;37.17
77975;BME280;67164;51.202;0.278;2024-01-07T12:10:48;102304.37;;;20.41;36.30
77975;BME280;67164;51.202;0.278;2024-01-07T12:13:13;102303.14;;;20.42;36.26
77975;BME280;67164;51.202;0.278;2024-01-07T12:15:39;102304.40;;;20.20;36.26
77975;BME280;67164;51.202;0.278;2024-01-07T12:18:04;102304.42;;;20.27;36.82
77975;BME280;67164;51.202;0.278;2024-01-07T12:20:30;102305.83;;;20.36;35.74
77975;BME280;67164;51.202;0.278;2024-01-07T12:22:57;102298.76;;;20.43;35.00
77975;BME280;67164;51.202;0.278;2024-01-07T12:25:21;102307.47;;;20.57;34.47
77975;BME280;67164;51.202;0.278;2024-01-07T12:27:47;102305.29;;;20.59;33.80
77975;BME280;67164;51.202;0.278;2024-01-07T12:30:13;102308.57;;;20.56;33.25
77975;BME280;67164;51.202;0.278;2024-01-07T12:32:38;102308.07;;;20.82;32.87
77975;BME280;67164;51.202;0.278;2024-01-07T12:35:04;102308.06;;;20.34;32.80
77975;BME280;67164;51.202;0.278;2024-01-07T12:37:30;102308.82;;;20.39;33.51
77975;BME280;67164;51.202;0.278;2024-01-07T12:39:54;102307.42;;;20.77;33.51
77975;BME280;67164;51.202;0.278;2024-01-07T12:42:20;102307.57;;;20.08;33.38
77975;BME280;67164;51.202;0.278;2024-01-07T12:44:45;102301.68;;;20.25;32.65